Latest Weather Observations for Woomera

IDS60801

Issued at 7:02 pm CDT Saturday 10 December 2016 (issued every 30 minutes, with the page automatically refreshed every 10 minutes)

About weather observations | Map of weather stations | Latest weather observations for SA | Other Formats
Station Details ID: 016001 Name: WOOMERA AERODROME Lat: -31.16 Lon: 136.81 Height: 166.6 m
Data from the previous 72 hours. | See also: Recent months at Woomera
Date/Time
CDT
Temp
°C
App
Temp
°C
Dew
Point
°C
Rel
Hum
%
Delta-T
°C
Wind Press
QNH
hPa
Press
MSL
hPa
Rain since
9am
mm
Dir  Spd
km/h
Gust
km/h
Spd
kts
Gust
kts
10/07:00pm 29.6 23.7 -0.7 14 14.3 S 20 28 11 15 1017.8 1016.9 0.0
10/06:30pm 29.9 24.2 -0.5 14 14.5 S 19 24 10 13 1017.8 1016.9 0.0
10/06:00pm 30.2 24.4 -0.2 14 14.6 SSW 20 30 11 16 1017.7 1016.8 0.0
10/05:30pm 30.7 25.5 0.2 14 14.8 SW 17 24 9 13 1017.6 1016.7 0.0
10/05:00pm 30.4 26.3 -0.1 14 14.7 ESE 11 20 6 11 1018.0 1017.1 0.0
10/04:30pm 30.5 26.7 -1.0 13 14.9 NNE 9 19 5 10 1018.3 1017.4 0.0
10/04:00pm 30.1 25.8 -1.3 13 14.8 SW 11 15 6 8 1018.8 1017.9 0.0
10/03:30pm 29.8 25.3 -0.5 14 14.4 NW 13 20 7 11 1019.1 1018.3 0.0
10/03:00pm 29.8 26.2 0.4 15 14.2 NW 9 15 5 8 1019.5 1018.7 0.0
10/02:30pm 28.9 24.8 -0.3 15 13.8 WNW 11 20 6 11 1019.9 1019.1 0.0
10/02:00pm 28.9 25.5 -0.3 15 13.9 W 7 19 4 10 1020.3 1019.5 0.0
10/01:30pm 28.6 24.6 0.3 16 13.5 NW 11 17 6 9 1020.8 1020.0 0.0
10/01:00pm 27.3 24.2 0.1 17 12.9 NNE 6 11 3 6 1021.3 1020.5 0.0
10/12:30pm 27.2 23.1 0.1 17 12.8 NE 11 19 6 10 1021.8 1021.0 0.0
10/12:00pm 27.5 24.4 1.1 18 12.7 NE 7 15 4 8 1022.0 1021.2 0.0
10/11:30am 25.4 21.4 0.8 20 11.6 N 11 22 6 12 1022.3 1021.5 0.0
10/11:00am 24.9 19.5 1.1 21 11.3 NNE 19 28 10 15 1022.5 1021.7 0.0
10/10:30am 25.0 19.5 1.8 22 11.1 NE 20 30 11 16 1022.6 1021.8 0.0
10/10:00am 23.7 18.3 2.5 25 10.2 NE 20 28 11 15 1022.6 1021.8 0.0
10/09:30am 22.2 17.2 3.8 30 8.9 E 19 28 10 15 1022.6 1021.8 0.0
10/09:00am 20.9 16.0 5.3 36 7.7 E 20 26 11 14 1022.6 1021.8 0.0
10/08:30am 19.6 15.0 6.4 42 6.6 ESE 20 26 11 14 1022.4 1021.6 0.0
10/08:00am 17.8 13.0 7.5 51 5.2 SE 22 26 12 14 1022.1 1021.3 0.0
10/07:30am 15.9 12.3 8.4 61 3.8 SE 17 20 9 11 1021.7 1020.9 0.0
10/07:00am 14.6 10.6 8.3 66 3.2 SE 19 22 10 12 1021.4 1020.6 0.0
10/06:30am 13.6 10.0 8.4 71 2.6 SSE 17 20 9 11 1020.9 1020.1 0.0
10/06:00am 13.6 9.7 8.7 72 2.5 SE 19 20 10 11 1020.4 1019.6 0.0
10/05:30am 13.7 10.6 8.7 72 2.5 SE 15 17 8 9 1020.1 1019.3 0.0
10/05:00am 14.2 10.3 8.8 70 2.8 SE 19 22 10 12 1019.8 1019.0 0.0
10/04:30am 14.5 11.1 9.1 70 2.8 SE 17 20 9 11 1019.8 1019.0 0.0
10/04:00am 14.9 11.5 9.1 68 3.0 SE 17 22 9 12 1019.8 1019.0 0.0
10/03:30am 15.4 11.5 9.3 67 3.2 SE 20 28 11 15 1019.6 1018.8 0.0
10/03:00am 15.6 11.5 8.8 64 3.5 SE 20 26 11 14 1019.7 1018.9 0.0
10/02:30am 16.1 11.5 8.3 60 4.0 SE 22 30 12 16 1019.9 1019.1 0.0
10/02:00am 16.6 11.4 7.3 54 4.7 SE 24 33 13 18 1020.2 1019.4 0.0
10/01:30am 17.1 11.8 6.9 51 5.1 SE 24 33 13 18 1020.3 1019.5 0.0
10/01:00am 17.6 11.8 6.2 47 5.6 SE 26 35 14 19 1020.6 1019.8 0.0
10/12:30am 18.3 12.8 5.8 44 6.2 SE 24 30 13 16 1020.6 1019.8 0.0
10/12:00am 19.0 13.8 5.5 41 6.6 SE 22 30 12 16 1020.6 1019.8 0.0
 
Date/Time
CDT
Temp
°C
App
Temp
°C
Dew
Point
°C
Rel
Hum
%
Delta-T
°C
Wind Press
QNH
hPa
Press
MSL
hPa
Rain since
9am
mm
Dir  Spd
km/h
Gust
km/h
Spd
kts
Gust
kts
09/11:30pm 19.7 14.3 4.6 37 7.3 SSE 22 28 12 15 1020.6 1019.8 0.0
09/11:00pm 20.1 15.4 2.9 32 8.1 SSE 17 24 9 13 1020.5 1019.7 0.0
09/10:30pm 20.5 15.6 1.9 29 8.6 SSE 17 20 9 11 1020.4 1019.6 0.0
09/10:00pm 21.1 16.4 0.9 26 9.2 SSE 15 19 8 10 1020.3 1019.5 0.0
09/09:30pm 21.4 16.8 1.7 27 9.2 SSE 15 17 8 9 1020.1 1019.3 0.0
09/09:00pm 21.7 17.4 0.8 25 9.6 SSE 13 15 7 8 1019.9 1019.1 0.0
09/08:30pm 22.7 17.6 0.5 23 10.2 SSE 17 20 9 11 1019.8 1019.0 0.0
09/08:00pm 23.6 18.1 0.7 22 10.6 SSE 19 24 10 13 1019.5 1018.7 0.0
09/07:30pm 24.5 19.1 1.4 22 10.9 SSE 19 24 10 13 1019.3 1018.5 0.0
09/07:00pm 24.6 19.3 2.1 23 10.8 SSE 19 26 10 14 1018.9 1018.1 0.0
09/06:30pm 25.4 20.1 2.8 23 11.0 SSE 20 26 11 14 1018.5 1017.6 0.0
09/06:00pm 25.9 20.5 2.6 22 11.4 S 20 37 11 20 1018.4 1017.5 0.0
09/05:30pm 25.1 19.0 2.5 23 11.0 S 24 35 13 19 1018.4 1017.5 0.0
09/05:00pm 25.9 21.7 3.8 24 11.1 S 15 33 8 18 1018.6 1017.7 0.0
09/04:30pm 24.8 19.5 2.9 24 10.7 SSE 20 35 11 19 1018.9 1018.1 0.0
09/04:00pm 25.6 21.2 4.7 26 10.6 S 17 32 9 17 1019.0 1018.2 0.0
09/03:30pm 24.4 18.6 4.2 27 10.1 SSE 24 39 13 21 1019.4 1018.6 0.0
09/03:00pm 23.8 18.8 3.7 27 9.9 SE 19 30 10 16 1019.5 1018.7 0.0
09/02:30pm 23.0 18.6 4.5 30 9.2 SSE 17 28 9 15 1019.8 1019.0 0.0
09/02:00pm 22.3 17.8 4.4 31 8.8 SE 17 33 9 18 1020.2 1019.4 0.0
09/01:30pm 21.9 18.0 5.3 34 8.3 SSE 15 32 8 17 1020.4 1019.6 0.0
09/01:00pm 23.0 18.4 5.4 32 8.9 SE 19 32 10 17 1020.8 1020.0 0.0
09/12:30pm 21.4 17.7 6.1 37 7.7 SSE 15 26 8 14 1021.1 1020.3 0.0
09/12:00pm 20.2 15.4 5.8 39 7.2 SSE 20 28 11 15 1021.2 1020.4 0.0
09/11:30am 20.3 15.7 6.6 41 6.9 SE 20 30 11 16 1021.4 1020.6 0.0
09/11:00am 19.3 14.0 6.8 44 6.3 SSE 24 33 13 18 1021.3 1020.5 0.0
09/10:30am 18.4 13.1 6.9 47 5.8 SSE 24 43 13 23 1021.4 1020.6 0.0
09/10:00am 18.1 13.3 7.2 49 5.5 SSE 22 35 12 19 1021.5 1020.7 0.0
09/09:30am 16.9 11.4 7.5 54 4.7 SSE 26 33 14 18 1021.5 1020.7 0.0
09/09:00am 16.9 11.3 7.0 52 4.9 SSE 26 35 14 19 1021.5 1020.7 0.0
09/08:30am 15.6 10.1 7.4 58 4.1 S 26 33 14 18 1021.4 1020.6 0.0
09/08:00am 14.7 9.4 7.0 60 3.8 S 24 30 13 16 1021.2 1020.4 0.0
09/07:30am 14.1 9.7 7.2 63 3.4 S 20 26 11 14 1020.8 1020.0 0.0
09/07:00am 12.9 8.3 6.7 66 3.0 S 20 24 11 13 1020.6 1019.8 0.0
09/06:30am 12.1 8.4 6.2 67 2.8 S 15 20 8 11 1020.3 1019.5 0.0
09/06:00am 12.1 8.0 6.2 67 2.8 S 17 20 9 11 1020.0 1019.2 0.0
09/05:30am 12.4 8.3 6.0 65 3.0 S 17 20 9 11 1020.0 1019.2 0.0
09/05:00am 12.7 8.5 5.8 63 3.3 S 17 20 9 11 1019.6 1018.8 0.0
09/04:30am 13.2 9.0 5.9 61 3.5 S 17 20 9 11 1019.3 1018.5 0.0
09/04:00am 13.5 8.8 6.1 61 3.6 S 20 26 11 14 1019.2 1018.4 0.0
09/03:30am 13.8 8.7 5.9 59 3.8 S 22 28 12 15 1019.0 1018.2 0.0
09/03:00am 14.2 9.1 6.1 58 3.9 S 22 30 12 16 1018.9 1018.1 0.0
09/02:30am 14.6 9.1 5.7 55 4.3 S 24 32 13 17 1018.8 1017.9 0.0
09/02:00am 14.8 10.1 5.1 52 4.6 S 19 24 10 13 1018.8 1017.9 0.0
09/01:30am 15.4 10.0 4.5 48 5.1 S 22 32 12 17 1018.7 1017.8 0.0
09/01:00am 15.8 9.9 3.9 45 5.5 S 24 32 13 17 1018.7 1017.8 0.0
09/12:30am 16.2 9.5 3.6 43 5.8 S 28 35 15 19 1018.6 1017.7 0.0
09/12:00am 16.7 10.1 4.4 44 5.8 S 28 37 15 20 1018.4 1017.5 0.0
 
Date/Time
CDT
Temp
°C
App
Temp
°C
Dew
Point
°C
Rel
Hum
%
Delta-T
°C
Wind Press
QNH
hPa
Press
MSL
hPa
Rain since
9am
mm
Dir  Spd
km/h
Gust
km/h
Spd
kts
Gust
kts
08/11:30pm 17.2 10.4 4.9 44 5.9 S 30 37 16 20 1018.3 1017.4 0.0
08/11:00pm 17.9 11.7 4.5 41 6.4 S 26 39 14 21 1017.9 1017.0 0.0
08/10:30pm 18.2 11.3 4.4 40 6.6 SSW 30 39 16 21 1017.4 1016.5 0.0
08/10:00pm 18.7 11.8 4.5 39 6.9 SSW 30 41 16 22 1016.8 1016.0 0.0
08/09:30pm 19.2 12.1 3.8 36 7.3 SSW 30 43 16 23 1016.5 1015.7 0.0
08/09:00pm 19.7 11.6 3.4 34 7.7 SSW 35 46 19 25 1016.1 1015.3 0.0
08/08:30pm 20.3 12.7 3.1 32 8.2 SSW 32 43 17 23 1015.6 1014.8 0.0
08/08:00pm 21.1 12.6 2.9 30 8.7 SSW 37 50 20 27 1015.1 1014.3 0.0
08/07:30pm 21.9 13.3 2.6 28 9.2 SSW 37 52 20 28 1014.6 1013.8 0.0
08/07:00pm 22.4 13.9 3.0 28 9.3 SW 37 48 20 26 1014.2 1013.4 0.0
08/06:30pm 23.1 14.2 3.1 27 9.7 SSW 39 52 21 28 1013.7 1012.9 0.0
08/06:03pm 23.7 15.0 4.1 28 9.7 SSW 39 57 21 31 1013.2 1012.3 0.0
08/06:00pm 23.4 14.9 3.4 27 9.8 SSW 37 50 20 27 1013.2 1012.3 0.0
08/05:30pm 23.6 14.5 4.0 28 9.7 SW 41 52 22 28 1013.0 1012.1 0.0
08/05:08pm 24.6 16.3 4.4 27 10.1 SW 37 56 20 30 1012.9 1012.0 0.0
08/05:00pm 24.0 15.4 4.4 28 9.8 SW 39 54 21 29 1012.9 1012.0 0.0
08/04:35pm 24.2 15.2 4.6 28 9.8 SW 41 59 22 32 1012.7 1011.8 0.0
08/04:30pm 24.3 15.3 4.6 28 9.9 SW 41 57 22 31 1012.8 1011.9 0.0
08/04:05pm 23.7 15.4 6.0 32 9.1 SW 39 57 21 31 1012.7 1011.8 0.0
08/04:00pm 24.4 16.1 6.2 31 9.4 SW 39 54 21 29 1012.7 1011.8 0.0
08/03:40pm 24.4 15.6 5.7 30 9.6 SW 41 61 22 33 1012.7 1011.8 0.0
08/03:30pm 24.1 15.7 5.5 30 9.5 SW 39 52 21 28 1012.7 1011.8 0.0
08/03:05pm 24.5 16.1 5.8 30 9.6 SW 39 59 21 32 1012.8 1011.9 0.0
08/03:00pm 24.2 15.4 5.5 30 9.5 SSW 41 56 22 30 1012.8 1011.9 0.0
08/02:30pm 23.6 14.4 6.4 33 8.9 SW 44 63 24 34 1012.9 1012.0 0.0
08/02:13pm 22.5 13.3 5.4 33 8.6 SW 43 61 23 33 1013.0 1012.1 0.0
08/02:00pm 23.3 14.2 5.7 32 9.0 SW 43 59 23 32 1013.0 1012.1 0.0
08/01:32pm 21.9 13.5 5.8 35 8.1 SW 39 57 21 31 1013.3 1012.4 0.0
08/01:30pm 22.7 14.0 6.0 34 8.5 SW 41 57 22 31 1013.5 1012.6 0.0
08/01:02pm 22.2 14.0 6.4 36 8.1 SW 39 59 21 32 1013.6 1012.8 0.0
08/01:00pm 21.9 13.9 5.8 35 8.1 SW 37 54 20 29 1013.7 1012.9 0.0
08/12:41pm 21.9 13.5 5.8 35 8.1 SW 39 57 21 31 1013.7 1012.9 0.0
08/12:30pm 21.8 13.5 6.1 36 8.0 SW 39 54 21 29 1013.8 1013.0 0.0
08/12:00pm 20.5 11.9 6.5 40 7.1 SW 41 54 22 29 1013.6 1012.8 0.0
08/11:30am 20.2 12.0 6.5 41 6.9 SW 39 54 21 29 1013.4 1012.5 0.0
08/11:13am 19.9 11.9 7.3 44 6.5 SW 39 57 21 31 1013.4 1012.5 0.0
08/11:00am 19.6 11.1 7.0 44 6.4 SW 41 54 22 29 1013.5 1012.6 0.0
08/10:30am 19.2 11.2 7.6 47 6.0 SSW 39 50 21 27 1013.3 1012.4 0.0
08/10:09am 18.6 10.6 7.4 48 5.7 SW 39 57 21 31 1013.2 1012.3 0.0
08/10:00am 18.0 10.6 6.8 48 5.6 SW 35 50 19 27 1013.1 1012.2 0.0
08/09:30am 17.4 11.1 9.1 58 4.3 SW 32 43 17 23 1012.8 1011.9 0.0
08/09:00am 17.1 10.2 8.8 58 4.3 SW 35 48 19 26 1012.5 1011.6 2.4
08/08:30am 16.3 7.9 8.8 61 3.9 SSW 43 54 23 29 1012.4 1011.5 2.4
08/08:00am 15.7 6.7 8.7 63 3.6 SW 46 59 25 32 1011.9 1011.0 2.4
08/07:30am 15.4 6.7 8.6 64 3.5 SSW 44 57 24 31 1011.5 1010.6 2.4
08/07:27am 15.4 6.7 8.4 63 3.6 SSW 44 63 24 34 1011.5 1010.6 2.4
08/07:00am 15.4 7.8 9.1 66 3.3 SW 39 54 21 29 1010.9 1010.1 2.4
08/06:30am 15.9 8.1 9.8 67 3.2 SW 41 61 22 33 1010.0 1009.2 2.4
08/06:15am 16.6 9.9 11.1 70 3.0 SW 37 57 20 31 1009.6 1008.8 2.4
08/06:00am 17.0 10.2 12.1 73 2.7 SW 39 50 21 27 1009.1 1008.3 2.4
08/05:30am 17.7 11.4 12.2 70 3.1 SW 37 54 20 29 1008.2 1007.3 2.4
08/05:00am 18.2 11.9 13.5 74 2.7 SW 39 50 21 27 1007.6 1006.7 2.4
08/04:32am 19.0 14.4 15.1 78 2.3 SW 33 54 18 29 1007.1 1006.2 2.4
08/04:30am 19.1 14.8 15.8 81 2.0 SW 33 46 18 25 1006.9 1006.0 2.4
08/04:00am 20.3 16.0 16.9 81 2.1 SW 35 46 19 25 1006.8 1005.9 2.4
08/03:30am 20.6 17.2 17.6 83 1.9 SW 32 39 17 21 1006.3 1005.4 2.4
08/03:00am 21.0 18.2 18.2 84 1.8 WSW 30 43 16 23 1006.3 1005.4 2.4
08/02:38am 22.9 23.0 20.4 86 1.6 W 20 43 11 23 1005.6 1004.7 2.4
08/02:30am 22.5 23.9 21.1 92 0.9 W 15 17 8 9 1005.7 1004.8 2.4
08/02:00am 22.4 23.7 20.9 91 1.0 W 15 19 8 10 1005.7 1004.8 2.4
08/01:49am 22.3 22.7 20.9 92 0.9 W 20 28 11 15 1005.9 1005.0 2.4
08/01:30am 21.9 18.4 20.5 92 0.9 WSW 39 52 21 28 1006.1 1005.2 2.2
08/01:20am 22.3 18.3 20.9 92 0.9 W 43 65 23 35 1006.3 1005.4 0.4
08/01:15am 25.4 21.8 20.2 73 3.4 NNW 39 65 21 35 1006.2 1005.3 0.0
08/01:14am 27.0 22.3 17.8 57 5.8 NNW 39 50 21 27 1005.9 1005.0 0.0
08/01:00am 29.0 22.7 13.6 38 9.2 N 39 57 21 31 1003.3 1002.5 0.0
08/12:56am 29.0 22.7 13.6 38 9.2 N 39 57 21 31 1003.3 1002.5 0.0
08/12:30am 29.0 22.6 13.2 37 9.5 N 39 50 21 27 1003.2 1002.4 0.0
08/12:00am 28.9 22.4 12.8 37 9.6 N 39 52 21 28 1003.2 1002.4 0.0
 
Date/Time
CDT
Temp
°C
App
Temp
°C
Dew
Point
°C
Rel
Hum
%
Delta-T
°C
Wind Press
QNH
hPa
Press
MSL
hPa
Rain since
9am
mm
Dir  Spd
km/h
Gust
km/h
Spd
kts
Gust
kts
07/11:30pm 29.2 22.5 12.2 35 10.0 N 39 50 21 27 1003.5 1002.7 0.0
07/11:00pm 29.5 22.8 12.4 35 10.1 N 39 52 21 28 1004.3 1003.5 0.0
07/10:30pm 30.0 23.3 12.4 34 10.4 N 39 50 21 27 1004.8 1004.0 0.0
07/10:00pm 30.4 24.5 12.3 33 10.7 N 35 46 19 25 1005.5 1004.6 0.0
07/09:30pm 30.9 25.5 12.3 32 11.1 N 32 41 17 22 1005.7 1004.8 0.0
07/09:00pm 31.5 26.1 12.3 31 11.4 N 32 43 17 23 1005.5 1004.6 0.0
07/08:30pm 32.0 26.3 11.7 28 12.0 N 33 43 18 23 1005.4 1004.5 0.0
07/08:00pm 32.8 27.5 11.3 27 12.6 N 30 43 16 23 1005.3 1004.4 0.0
07/07:30pm 33.4 27.4 10.7 25 13.3 N 33 41 18 22 1005.4 1004.5 0.0

Other Formats:

Comma delimited format used in spreadsheet applications
http://www.bom.gov.au/fwo/IDS60801/IDS60801.94659.axf

JavaScript Object Notation format (JSON) in row-major order
http://www.bom.gov.au/fwo/IDS60801/IDS60801.94659.json